.
WxDataArchive / Data Records for 2014-11-01
2014-10-31 November 2014 2014-11-02

Data Records for Saturday, 01 November 2014

Time	Temp	Chill	HIndex	Humid	Dewpt	 Wind 	HiWind	WindDir	Rain 	Barom
-----	----	-----	------	-----	-----	------	------	-------	-----	-----
00:00	34.3	30.7	34.3	67	24.5	4	12	338	0.00	30.154 
00:05	34.3	34.3	34.3	67	24.5	3	12	338	0.00	30.154 
00:10	34.3	34.3	34.3	67	24.5	3	11	338	0.00	30.154 
00:15	34.1	34.1	34.1	67	24.3	3	9	338	0.00	30.152 
00:20	34.1	30.5	34.1	67	24.3	4	12	338	0.00	30.152 
00:25	34.1	34.1	34.1	67	24.3	2	9	315	0.00	30.152 
00:30	34.0	34.0	34.0	67	24.2	3	12	338	0.00	30.150 
00:35	34.0	30.4	34.0	67	24.2	4	10	338	0.00	30.150 
00:40	34.0	30.4	34.0	66	23.9	4	9	338	0.00	30.150 
00:45	33.8	33.8	33.8	67	24.0	2	7	0	0.00	30.150 
00:50	33.8	30.2	33.8	67	24.0	4	7	338	0.00	30.150 
00:55	33.7	33.7	33.7	68	24.3	3	10	338	0.00	30.150 
01:00	33.5	33.5	33.5	69	24.4	3	11	338	0.00	30.153 
01:05	33.4	33.4	33.4	69	24.3	3	10	315	0.00	30.153 
01:10	33.2	29.5	33.2	71	24.8	4	11	338	0.00	30.153 
01:15	33.1	33.1	33.1	72	25.1	3	7	338	0.00	30.154 
01:20	32.8	32.8	32.8	74	25.4	3	9	338	0.00	30.154 
01:25	32.7	32.7	32.7	75	25.7	2	13	338	0.00	30.154 
01:30	32.4	32.4	32.4	76	25.7	3	10	338	0.00	30.156 
01:35	32.2	32.2	32.2	78	26.1	2	9	315	0.00	30.156 
01:40	31.9	31.9	31.9	80	26.4	3	6	338	0.00	30.156 
01:45	31.8	31.8	31.8	80	26.3	3	10	338	0.00	30.159 
01:50	31.9	31.9	31.9	81	26.7	3	8	338	0.00	30.159 
01:55	31.9	31.9	31.9	81	26.7	2	7	338	0.00	30.159 
02:00	31.9	31.9	31.9	81	26.7	3	10	338	0.00	30.158 
02:05	31.8	31.8	31.8	82	26.9	3	7	315	0.00	30.158 
02:10	31.6	31.6	31.6	82	26.7	3	6	338	0.00	30.158 
02:15	31.6	31.6	31.6	83	27.0	3	11	338	0.00	30.155 
02:20	31.6	31.6	31.6	82	26.7	3	8	338	0.00	30.155 
02:25	31.8	31.8	31.8	81	26.6	2	7	315	0.00	30.155 
02:30	31.9	28.0	31.9	81	26.7	4	9	315	0.00	30.156 
02:35	32.1	32.1	32.1	79	26.3	3	7	338	0.00	30.156 
02:40	32.4	28.5	32.4	77	26.0	4	9	338	0.00	30.156 
02:45	32.7	28.9	32.7	75	25.7	4	9	338	0.00	30.158 
02:50	32.8	29.0	32.8	73	25.1	4	10	338	0.00	30.158 
02:55	32.9	32.9	32.9	73	25.2	2	7	338	0.00	30.158 
03:00	32.9	32.9	32.9	72	24.9	3	10	338	0.00	30.165 
03:05	33.1	28.4	33.1	72	25.1	5	12	338	0.00	30.165 
03:10	33.1	33.1	33.1	70	24.4	3	6	338	0.00	30.165 
03:15	33.2	29.5	33.2	69	24.2	4	13	338	0.00	30.167 
03:20	33.4	33.4	33.4	69	24.3	3	10	338	0.00	30.167 
03:25	33.4	33.4	33.4	69	24.3	3	11	0	0.00	30.167 
03:30	33.5	29.8	33.5	68	24.1	4	13	338	0.00	30.171 
03:35	33.4	33.4	33.4	68	24.0	3	9	0	0.00	30.171 
03:40	33.4	29.7	33.4	68	24.0	4	13	338	0.00	30.171 
03:45	33.4	33.4	33.4	68	24.0	2	6	338	0.00	30.170 
03:50	33.4	33.4	33.4	68	24.0	3	9	338	0.00	30.170 
03:55	33.4	33.4	33.4	68	24.0	3	9	338	0.00	30.170 
04:00	33.2	33.2	33.2	68	23.8	3	9	338	0.00	30.172 
04:05	33.2	33.2	33.2	68	23.8	2	9	338	0.00	30.172 
04:10	33.2	33.2	33.2	68	23.8	2	8	0	0.00	30.172 
04:15	33.2	33.2	33.2	68	23.8	2	7	0	0.00	30.180 
04:20	33.2	33.2	33.2	68	23.8	2	6	338	0.00	30.180 
04:25	33.1	33.1	33.1	68	23.7	2	11	338	0.00	30.180 
04:30	33.1	33.1	33.1	68	23.7	2	7	338	0.00	30.188 
04:35	33.1	33.1	33.1	68	23.7	2	7	338	0.00	30.188 
04:40	32.9	32.9	32.9	68	23.5	3	7	338	0.00	30.188 
04:45	32.9	32.9	32.9	68	23.5	3	11	0	0.00	30.193 
04:50	32.8	32.8	32.8	68	23.4	2	11	315	0.00	30.193 
04:55	32.7	32.7	32.7	68	23.3	3	8	315	0.00	30.193 
05:00	32.7	28.9	32.7	68	23.3	4	11	338	0.00	30.204 
05:05	32.5	32.5	32.5	69	23.5	2	10	338	0.00	30.204 
05:10	32.5	32.5	32.5	69	23.5	3	11	292	0.00	30.204 
05:15	32.5	32.5	32.5	69	23.5	2	6	338	0.00	30.208 
05:20	32.5	32.5	32.5	69	23.5	1	5	338	0.00	30.208 
05:25	32.5	32.5	32.5	69	23.5	2	13	338	0.00	30.208 
05:30	32.4	32.4	32.4	69	23.4	2	7	338	0.00	30.213 
05:35	32.4	32.4	32.4	69	23.4	3	10	338	0.00	30.213 
05:40	32.4	32.4	32.4	69	23.4	3	9	338	0.00	30.213 
05:45	32.2	32.2	32.2	70	23.5	2	11	338	0.00	30.223 
05:50	32.2	32.2	32.2	69	23.2	3	7	338	0.00	30.223 
05:55	32.4	32.4	32.4	69	23.4	2	10	338	0.00	30.223 
06:00	32.5	32.5	32.5	69	23.5	3	7	338	0.00	30.231 
06:05	32.4	32.4	32.4	69	23.4	2	8	315	0.00	30.231 
06:10	32.4	32.4	32.4	70	23.7	2	6	315	0.00	30.231 
06:15	32.4	32.4	32.4	70	23.7	2	6	338	0.00	30.241 
06:20	32.2	32.2	32.2	69	23.2	3	7	338	0.00	30.241 
06:25	32.2	32.2	32.2	69	23.2	2	8	338	0.00	30.241 
06:30	32.1	32.1	32.1	69	23.1	2	9	338	0.00	30.251 
06:35	32.1	32.1	32.1	69	23.1	3	7	338	0.00	30.251 
06:40	32.1	28.2	32.1	69	23.1	4	13	338	0.00	30.251 
06:45	32.1	32.1	32.1	69	23.1	2	9	338	0.00	30.260 
06:50	31.9	31.9	31.9	69	22.9	3	11	338	0.00	30.260 
06:55	31.9	31.9	31.9	69	22.9	2	7	0	0.00	30.260 
07:00	31.9	31.9	31.9	69	22.9	2	11	0	0.00	30.268 
07:05	31.8	27.8	31.8	68	22.5	4	9	338	0.00	30.268 
07:10	31.8	31.8	31.8	69	22.8	3	9	338	0.00	30.268 
07:15	31.6	31.6	31.6	68	22.3	3	9	338	0.00	30.272 
07:20	31.6	31.6	31.6	68	22.3	3	9	338	0.00	30.272 
07:25	31.6	31.6	31.6	68	22.3	3	10	338	0.00	30.272 
07:30	31.5	31.5	31.5	69	22.5	2	13	0	0.00	30.277 
07:35	31.5	31.5	31.5	69	22.5	2	7	338	0.00	30.277 
07:40	31.5	31.5	31.5	69	22.5	3	11	338	0.00	30.277 
07:45	31.3	31.3	31.3	69	22.3	3	9	338	0.00	30.287 
07:50	31.3	27.3	31.3	69	22.3	4	7	338	0.00	30.287 
07:55	31.3	31.3	31.3	69	22.3	3	9	338	0.00	30.287 
08:00	31.3	31.3	31.3	69	22.3	2	10	315	0.00	30.298 
08:05	31.2	31.2	31.2	69	22.2	3	9	315	0.00	30.298 
08:10	31.3	31.3	31.3	69	22.3	3	7	338	0.00	30.298 
08:15	31.3	31.3	31.3	69	22.3	2	7	338	0.00	30.306 
08:20	31.2	31.2	31.2	69	22.2	3	9	338	0.00	30.306 
08:25	31.2	31.2	31.2	69	22.2	3	8	315	0.00	30.306 
08:30	31.3	31.3	31.3	69	22.3	3	7	338	0.00	30.313 
08:35	31.2	31.2	31.2	69	22.2	2	6	338	0.00	30.313 
08:40	31.2	31.2	31.2	69	22.2	2	13	338	0.00	30.313 
08:45	31.2	31.2	31.2	69	22.2	2	6	338	0.00	30.320 
08:50	31.3	31.3	31.3	69	22.3	3	10	338	0.00	30.320 
08:55	31.3	31.3	31.3	68	22.0	3	10	315	0.00	30.320 
09:00	31.5	31.5	31.5	68	22.2	3	10	338	0.00	30.320 
09:05	31.6	27.6	31.6	67	21.9	4	9	338	0.00	30.320 
09:10	31.6	31.6	31.6	67	21.9	3	11	338	0.00	30.320 
09:15	31.8	31.8	31.8	66	21.8	3	10	338	0.00	30.322 
09:20	31.9	31.9	31.9	67	22.2	2	5	338	0.00	30.322 
09:25	31.9	31.9	31.9	66	21.9	2	7	338	0.00	30.322 
09:30	32.1	32.1	32.1	66	22.0	2	9	338	0.00	30.329 
09:35	32.2	32.2	32.2	65	21.8	2	5	338	0.00	30.329 
09:40	32.4	32.4	32.4	65	22.0	2	7	338	0.00	30.329 
09:45	32.4	28.5	32.4	64	21.6	4	10	338	0.00	30.335 
09:50	32.5	32.5	32.5	64	21.7	2	7	338	0.00	30.335 
09:55	32.7	32.7	32.7	64	21.9	2	6	338	0.00	30.335 
10:00	32.8	32.8	32.8	64	22.0	3	8	315	0.00	30.342 
10:05	32.9	32.9	32.9	63	21.7	3	11	338	0.00	30.342 
10:10	33.1	33.1	33.1	63	21.9	3	9	338	0.00	30.342 
10:15	33.1	28.4	33.1	62	21.5	5	11	338	0.00	30.344 
10:20	33.2	33.2	33.2	63	22.0	3	11	338	0.00	30.344 
10:25	33.2	29.5	33.2	62	21.6	4	9	338	0.00	30.344 
10:30	33.5	33.5	33.5	62	21.9	2	7	338	0.00	30.352 
10:35	33.7	33.7	33.7	62	22.1	3	12	338	0.00	30.352 
10:40	33.8	33.8	33.8	62	22.2	2	7	338	0.00	30.352 
10:45	34.0	34.0	34.0	61	22.0	3	9	338	0.00	30.353 
10:50	34.1	34.1	34.1	61	22.1	3	8	338	0.00	30.353 
10:55	34.6	34.6	34.6	61	22.6	2	7	338	0.00	30.353 
11:00	34.7	34.7	34.7	60	22.3	3	10	0	0.00	30.356 
11:05	34.6	34.6	34.6	60	22.2	3	7	338	0.00	30.356 
11:10	34.6	34.6	34.6	61	22.6	2	6	338	0.00	30.356 
11:15	34.7	34.7	34.7	60	22.3	2	9	0	0.00	30.354 
11:20	34.9	34.9	34.9	60	22.4	2	5	338	0.00	30.354 
11:25	35.0	35.0	35.0	59	22.1	3	9	338	0.00	30.354 
11:30	35.0	35.0	35.0	61	22.9	2	10	338	0.00	30.356 
11:35	35.5	35.5	35.5	60	23.0	2	6	338	0.00	30.356 
11:40	35.9	35.9	35.9	60	23.4	1	5	315	0.00	30.356 
11:45	36.0	36.0	36.0	59	23.1	2	8	315	0.00	30.352 
11:50	36.0	36.0	36.0	58	22.7	2	6	338	0.00	30.352 
11:55	36.3	36.3	36.3	57	22.5	1	6	338	0.00	30.352 
12:00	36.5	36.5	36.5	58	23.1	1	5	338	0.00	30.352 
12:05	36.5	36.5	36.5	57	22.7	2	6	338	0.00	30.352 
12:10	36.2	36.2	36.2	57	22.5	3	6	315	0.00	30.352 
12:15	36.0	36.0	36.0	56	21.8	3	7	338	0.00	30.353 
12:20	36.5	36.5	36.5	57	22.7	2	7	315	0.00	30.353 
12:25	36.5	36.5	36.5	54	21.5	2	6	315	0.00	30.353 
12:30	36.8	36.8	36.8	56	22.6	1	6	338	0.00	30.350 
12:35	37.2	37.2	37.2	56	23.0	1	5	45	0.00	30.350 
12:40	37.8	37.8	37.8	56	23.5	1	5	315	0.00	30.350 
12:45	37.6	37.6	37.6	53	22.0	1	5	338	0.00	30.346 
12:50	37.6	37.6	37.6	54	22.5	1	5	338	0.00	30.346 
12:55	37.9	37.9	37.9	54	22.8	1	6	112	0.00	30.346 
13:00	37.8	37.8	37.8	52	21.8	2	7	338	0.00	30.342 
13:05	37.6	37.6	37.6	53	22.0	1	5	338	0.00	30.342 
13:10	37.9	37.9	37.9	52	21.9	1	5	338	0.00	30.342 
13:15	38.0	38.0	38.0	54	22.9	0	2	270	0.00	30.336 
13:20	38.3	38.3	38.3	51	21.8	1	6	90	0.00	30.336 
13:25	38.5	38.5	38.5	51	22.0	2	5	315	0.00	30.336 
13:30	38.6	38.6	38.6	50	21.6	2	5	315	0.00	30.331 
13:35	38.8	38.8	38.8	50	21.8	2	7	338	0.00	30.331 
13:40	38.9	38.9	38.9	50	21.9	2	7	315	0.00	30.331 
13:45	38.8	38.8	38.8	49	21.3	2	7	315	0.00	30.321 
13:50	38.9	38.9	38.9	48	20.9	1	4	338	0.00	30.321 
13:55	39.2	39.2	39.2	50	22.1	1	7	338	0.00	30.321 
14:00	39.3	39.3	39.3	48	21.3	2	6	315	0.00	30.319 
14:05	39.5	39.5	39.5	48	21.5	1	5	338	0.00	30.319 
14:10	39.8	39.8	39.8	50	22.7	0	4	338	0.00	30.319 
14:15	40.2	40.2	40.2	50	23.1	0	3	315	0.00	30.314 
14:20	40.2	40.2	40.2	47	21.6	2	5	315	0.00	30.314 
14:25	39.9	39.9	39.9	46	20.8	2	6	315	0.00	30.314 
14:30	39.8	39.8	39.8	46	20.7	3	6	338	0.00	30.315 
14:35	39.8	39.8	39.8	46	20.7	1	6	0	0.00	30.315 
14:40	40.1	40.1	40.1	45	20.5	2	7	0	0.00	30.315 
14:45	40.1	40.1	40.1	45	20.5	2	9	338	0.00	30.310 
14:50	40.5	40.5	40.5	46	21.4	1	4	292	0.00	30.310 
14:55	40.8	40.8	40.8	45	21.1	1	5	315	0.00	30.310 
15:00	41.1	41.1	41.1	44	20.9	2	6	315	0.00	30.304 
15:05	40.9	40.9	40.9	43	20.1	2	6	0	0.00	30.304 
15:10	40.9	40.9	40.9	43	20.1	2	6	315	0.00	30.304 
15:15	40.8	40.8	40.8	42	19.5	3	6	338	0.00	30.304 
15:20	40.6	40.6	40.6	41	18.8	2	5	315	0.00	30.304 
15:25	40.9	40.9	40.9	41	19.0	2	5	338	0.00	30.304 
15:30	40.9	40.9	40.9	42	19.6	1	6	338	0.00	30.301 
15:35	41.1	41.1	41.1	44	20.9	1	3	338	0.00	30.301 
15:40	41.3	41.3	41.3	42	20.0	1	6	338	0.00	30.301 
15:45	41.5	41.5	41.5	42	20.1	2	6	315	0.00	30.302 
15:50	41.5	41.5	41.5	43	20.7	1	6	338	0.00	30.302 
15:55	41.5	41.5	41.5	40	19.0	2	6	338	0.00	30.302 
16:00	41.5	41.5	41.5	40	19.0	1	6	338	0.00	30.306 
16:05	41.5	41.5	41.5	40	19.0	1	5	292	0.00	30.306 
16:10	41.6	41.6	41.6	41	19.7	1	5	315	0.00	30.306 
16:15	41.8	41.8	41.8	39	18.7	2	7	338	0.00	30.307 
16:20	41.8	41.8	41.8	39	18.7	2	5	292	0.00	30.307 
16:25	41.6	41.6	41.6	39	18.5	2	6	292	0.00	30.307 
16:30	41.5	41.5	41.5	39	18.4	1	5	338	0.00	30.311 
16:35	41.6	41.6	41.6	41	19.7	0	3	338	0.00	30.311 
16:40	41.8	41.8	41.8	40	19.3	0	1	338	0.00	30.311 
16:45	41.6	41.6	41.6	40	19.1	1	3	315	0.00	30.314 
16:50	41.6	41.6	41.6	39	18.5	1	5	315	0.00	30.314 
16:55	41.5	41.5	41.5	39	18.4	2	6	338	0.00	30.314 
17:00	41.5	41.5	41.5	39	18.4	1	4	338	0.00	30.316 
17:05	41.5	41.5	41.5	38	17.8	2	5	315	0.00	30.316 
17:10	41.5	41.5	41.5	37	17.2	1	5	315	0.00	30.316 
17:15	41.5	41.5	41.5	39	18.4	1	5	338	0.00	30.316 
17:20	41.3	41.3	41.3	39	18.2	1	5	338	0.00	30.316 
17:25	41.1	41.1	41.1	40	18.6	1	6	338	0.00	30.316 
17:30	40.9	40.9	40.9	38	17.3	1	7	338	0.00	30.321 
17:35	40.9	40.9	40.9	39	17.9	1	4	338	0.00	30.321 
17:40	40.8	40.8	40.8	39	17.8	1	3	338	0.00	30.321 
17:45	40.6	40.6	40.6	40	18.2	1	7	135	0.00	30.328 
17:50	40.5	40.5	40.5	40	18.1	1	4	292	0.00	30.328 
17:55	40.3	40.3	40.3	40	17.9	1	5	338	0.00	30.328 
18:00	40.2	40.2	40.2	41	18.4	0	3	338	0.00	30.329 
18:05	40.1	40.1	40.1	42	18.9	0	3	0	0.00	30.329 
18:10	40.1	40.1	40.1	41	18.3	0	2	0	0.00	30.329 
18:15	39.9	39.9	39.9	42	18.7	0	3	292	0.00	30.330 
18:20	39.6	39.6	39.6	41	17.9	1	3	292	0.00	30.330 
18:25	39.5	39.5	39.5	42	18.3	0	2	292	0.00	30.330 
18:30	39.2	39.2	39.2	42	18.1	0	2	292	0.00	30.334 
18:35	39.1	39.1	39.1	42	18.0	1	3	292	0.00	30.334 
18:40	38.9	38.9	38.9	42	17.8	1	3	292	0.00	30.334 
18:45	38.8	38.8	38.8	43	18.2	0	3	292	0.00	30.335 
18:50	38.5	38.5	38.5	43	18.0	0	2	292	0.00	30.335 
18:55	38.3	38.3	38.3	43	17.8	0	3	292	0.00	30.335 
19:00	38.2	38.2	38.2	44	18.2	0	1	292	0.00	30.343 
19:05	37.8	37.8	37.8	45	18.4	0	1	292	0.00	30.343 
19:10	37.6	37.6	37.6	45	18.2	0	0	---	0.00	30.343 
19:15	37.3	37.3	37.3	45	17.9	0	0	---	0.00	30.351 
19:20	37.0	37.0	37.0	46	18.2	0	0	---	0.00	30.351 
19:25	36.8	36.8	36.8	47	18.5	0	0	---	0.00	30.351 
19:30	36.5	36.5	36.5	47	18.2	0	0	---	0.00	30.354 
19:35	36.2	36.2	36.2	48	18.4	0	0	---	0.00	30.354 
19:40	35.9	35.9	35.9	48	18.1	0	0	---	0.00	30.354 
19:45	35.6	35.6	35.6	49	18.3	0	0	---	0.00	30.363 
19:50	35.3	35.3	35.3	50	18.5	0	0	---	0.00	30.363 
19:55	35.0	35.0	35.0	51	18.7	0	0	---	0.00	30.363 
20:00	34.7	34.7	34.7	51	18.4	0	0	---	0.00	30.365 
20:05	34.6	34.6	34.6	52	18.8	0	0	---	0.00	30.365 
20:10	34.4	34.4	34.4	52	18.6	0	0	---	0.00	30.365 
20:15	34.4	34.4	34.4	52	18.6	0	0	---	0.00	30.368 
20:20	34.4	34.4	34.4	52	18.6	0	1	292	0.00	30.368 
20:25	34.3	34.3	34.3	53	19.0	0	0	---	0.00	30.368 
20:30	34.1	34.1	34.1	53	18.8	0	0	---	0.00	30.369 
20:35	34.0	34.0	34.0	53	18.7	0	0	---	0.00	30.369 
20:40	33.8	33.8	33.8	53	18.5	0	0	---	0.00	30.369 
20:45	33.5	33.5	33.5	54	18.7	0	0	---	0.00	30.369 
20:50	33.4	33.4	33.4	55	19.0	0	0	---	0.00	30.369 
20:55	33.1	33.1	33.1	54	18.3	0	0	---	0.00	30.369 
21:00	32.9	32.9	32.9	55	18.5	0	0	---	0.00	30.371 
21:05	32.8	32.8	32.8	56	18.9	0	0	---	0.00	30.371 
21:10	32.5	32.5	32.5	57	19.0	0	0	---	0.00	30.371 
21:15	32.2	32.2	32.2	58	19.1	0	0	---	0.00	30.372 
21:20	31.8	31.8	31.8	58	18.7	0	0	---	0.00	30.372 
21:25	31.5	31.5	31.5	60	19.2	0	0	---	0.00	30.372 
21:30	31.0	31.0	31.0	60	18.8	0	0	---	0.00	30.374 
21:35	30.7	30.7	30.7	61	18.9	0	0	---	0.00	30.374 
21:40	30.4	30.4	30.4	62	19.0	0	0	---	0.00	30.374 
21:45	30.1	30.1	30.1	63	19.0	0	0	---	0.00	30.377 
21:50	30.0	30.0	30.0	63	19.0	0	0	---	0.00	30.377 
21:55	29.7	29.7	29.7	63	18.7	0	0	---	0.00	30.377 
22:00	29.5	29.5	29.5	65	19.2	0	0	---	0.00	30.383 
22:05	29.3	29.3	29.3	65	19.0	0	0	---	0.00	30.383 
22:10	29.1	29.1	29.1	65	18.8	0	0	---	0.00	30.383 
22:15	29.0	29.0	29.0	66	19.1	0	0	---	0.00	30.384 
22:20	28.8	28.8	28.8	66	18.9	0	0	---	0.00	30.384 
22:25	28.7	28.7	28.7	67	19.2	0	0	---	0.00	30.384 
22:30	28.4	28.4	28.4	68	19.2	0	0	---	0.00	30.386 
22:35	28.2	28.2	28.2	70	19.7	0	0	---	0.00	30.386 
22:40	28.2	28.2	28.2	71	20.0	0	0	---	0.00	30.386 
22:45	28.2	28.2	28.2	72	20.4	0	0	---	0.00	30.388 
22:50	28.1	28.1	28.1	73	20.6	0	0	---	0.00	30.388 
22:55	28.1	28.1	28.1	73	20.6	0	0	---	0.00	30.388 
23:00	27.9	27.9	27.9	73	20.4	0	0	---	0.00	30.386 
23:05	27.8	27.8	27.8	74	20.6	0	0	---	0.00	30.386 
23:10	27.8	27.8	27.8	74	20.6	0	0	---	0.00	30.386 
23:15	27.6	27.6	27.6	74	20.4	0	0	---	0.00	30.378 
23:20	27.5	27.5	27.5	74	20.3	0	0	---	0.00	30.378 
23:25	27.2	27.2	27.2	75	20.3	0	0	---	0.00	30.378 
23:30	27.2	27.2	27.2	75	20.3	0	0	---	0.00	30.376 
23:35	27.0	27.0	27.0	76	20.5	0	0	---	0.00	30.376 
23:40	27.0	27.0	27.0	76	20.5	0	0	---	0.00	30.376 
23:45	26.9	26.9	26.9	77	20.7	0	0	---	0.00	30.378 
23:50	26.9	26.9	26.9	77	20.7	0	0	---	0.00	30.378 
23:55	26.7	26.7	26.7	77	20.5	0	0	---	0.00	30.378 

CoCoRaHS
IN-AL-39
A2 Web Hosting
Creative Commons License
GoDaddy
search engine by freefind advanced

loaded 2018-11-14 00:05:29 • last modified 2010-11-18 10:43:29
Privacy PolicyDisclaimer
• wx.awcolley.com is powered by PmWiki v.2002016 •
• all content (unless otherwise noted) © 2018 A W Colley